Time;durP1;ratioP1;P1;durP2;ratioP2;P2;SDS_P1;SDS_P2;PMS_P1;PMS_P2;Temp;Humidity;BMP_temperature;BMP_pressure;BME280_temperature;BME280_humidity;BME280_pressure;Samples;Min_cycle;Max_cycle;Signal;HPM_P1;HPM_P2
2023/06/07 00:02:18;;;;;;;19.00;2.90;;;12.20;99.90;;;;;;5010659;28;20115;-67
2023/06/07 00:04:45;;;;;;;14.45;2.63;;;12.20;99.90;;;;;;5014680;28;20049;-67
2023/06/07 00:07:11;;;;;;;22.15;2.92;;;12.20;99.90;;;;;;5044920;28;20044;-67
2023/06/07 00:09:37;;;;;;;15.38;3.25;;;12.20;99.90;;;;;;5011666;28;20117;-66
2023/06/07 00:12:04;;;;;;;11.90;2.50;;;12.30;99.90;;;;;;5028421;28;20033;-66
2023/06/07 00:14:30;;;;;;;14.63;2.67;;;12.20;99.90;;;;;;5028849;28;20369;-66
2023/06/07 00:16:56;;;;;;;17.33;2.80;;;12.20;99.90;;;;;;5028874;28;20762;-67
2023/06/07 00:19:25;;;;;;;15.00;2.70;;;12.20;99.90;;;;;;5012045;28;20160;-66
2023/06/07 00:21:51;;;;;;;17.08;3.15;;;12.10;99.90;;;;;;5044798;28;20044;-66
2023/06/07 00:24:18;;;;;;;17.05;2.83;;;12.20;99.90;;;;;;5009717;28;20079;-67
2023/06/07 00:26:43;;;;;;;14.82;2.42;;;12.20;99.90;;;;;;5011278;28;20235;-67
2023/06/07 00:29:10;;;;;;;14.50;2.70;;;12.10;99.90;;;;;;5012805;28;20042;-66
2023/06/07 00:31:36;;;;;;;16.27;2.67;;;12.10;99.90;;;;;;5044382;28;20095;-67
2023/06/07 00:34:02;;;;;;;15.70;3.10;;;12.10;99.90;;;;;;5012682;28;20170;-66
2023/06/07 00:36:29;;;;;;;13.88;2.83;;;12.10;99.90;;;;;;5027614;28;20083;-67
2023/06/07 00:38:55;;;;;;;15.40;2.92;;;12.10;99.90;;;;;;4996108;28;20099;-66
2023/06/07 00:41:21;;;;;;;18.70;2.90;;;12.10;99.90;;;;;;5028479;28;20487;-66
2023/06/07 00:43:47;;;;;;;16.48;3.10;;;12.10;99.90;;;;;;5010582;28;20030;-67
2023/06/07 00:46:17;;;;;;;16.60;2.70;;;12.00;99.90;;;;;;4990554;28;20052;-66
2023/06/07 00:48:43;;;;;;;14.57;2.63;;;12.00;99.90;;;;;;5046020;28;20258;-67
2023/06/07 00:51:09;;;;;;;17.15;3.17;;;12.00;99.90;;;;;;5026606;28;20038;-66
2023/06/07 00:53:36;;;;;;;12.38;2.47;;;12.00;99.90;;;;;;4994587;28;20045;-67
2023/06/07 00:56:05;;;;;;;22.55;3.70;;;12.00;99.90;;;;;;4996013;28;20100;-67
2023/06/07 00:58:32;;;;;;;17.63;2.80;;;12.00;99.90;;;;;;4995877;28;20328;-66
2023/06/07 01:01:00;;;;;;;19.88;3.22;;;12.00;99.90;;;;;;5010842;28;20072;-67
2023/06/07 01:03:27;;;;;;;19.67;3.83;;;12.00;99.90;;;;;;4992422;28;20108;-66
2023/06/07 01:05:53;;;;;;;18.75;2.95;;;12.00;99.90;;;;;;4982879;28;20108;-67
2023/06/07 01:08:20;;;;;;;20.08;2.97;;;11.90;99.90;;;;;;5017730;28;20045;-66
2023/06/07 01:10:46;;;;;;;19.88;3.50;;;11.90;99.90;;;;;;4990715;28;20593;-66
2023/06/07 01:13:14;;;;;;;14.52;2.75;;;11.90;99.90;;;;;;5024769;28;20052;-67
2023/06/07 01:15:40;;;;;;;16.38;2.58;;;11.90;99.90;;;;;;5028054;28;20097;-66
2023/06/07 01:18:09;;;;;;;20.17;3.38;;;11.90;99.90;;;;;;4994717;28;20036;-66
2023/06/07 01:20:37;;;;;;;17.55;3.05;;;11.90;99.90;;;;;;4994454;28;20361;-67
2023/06/07 01:23:07;;;;;;;15.10;2.70;;;11.90;99.90;;;;;;4997082;28;20447;-66
2023/06/07 01:25:33;;;;;;;19.27;3.10;;;11.90;99.90;;;;;;5028340;28;20538;-67
2023/06/07 01:28:01;;;;;;;14.13;2.70;;;12.00;99.90;;;;;;5028052;28;20037;-67
2023/06/07 01:30:31;;;;;;;14.85;2.70;;;12.00;99.90;;;;;;4995091;28;20037;-66
2023/06/07 01:32:58;;;;;;;14.73;2.90;;;12.00;99.90;;;;;;5011555;28;20267;-67
2023/06/07 01:35:25;;;;;;;13.75;2.78;;;12.00;99.90;;;;;;4995999;28;20152;-67
2023/06/07 01:37:52;;;;;;;16.42;2.90;;;12.00;99.90;;;;;;5027483;28;20050;-66
2023/06/07 01:40:20;;;;;;;18.75;2.80;;;11.90;99.90;;;;;;5027849;28;20044;-66
2023/06/07 01:42:47;;;;;;;14.60;3.28;;;11.90;99.90;;;;;;4994651;28;20192;-66
2023/06/07 01:45:13;;;;;;;16.05;2.53;;;11.90;99.90;;;;;;4996086;28;20132;-66
2023/06/07 01:47:39;;;;;;;16.20;2.50;;;12.00;99.90;;;;;;5009983;28;20232;-67
2023/06/07 01:50:08;;;;;;;13.00;2.83;;;11.90;99.90;;;;;;4994378;28;20045;-66
2023/06/07 01:52:33;;;;;;;14.95;3.17;;;11.90;99.90;;;;;;4994926;28;20293;-66
2023/06/07 01:55:00;;;;;;;16.98;2.47;;;11.90;99.90;;;;;;5010921;28;20396;-67
2023/06/07 01:57:46;;;;;;;13.48;2.63;;;11.90;99.90;;;;;;4994538;28;20084;-66
2023/06/07 02:00:23;;;;;;;15.40;2.88;;;11.80;99.90;;;;;;4992497;28;20058;-67
2023/06/07 02:03:10;;;;;;;20.05;2.95;;;11.80;99.90;;;;;;5042169;28;20060;-66
2023/06/07 02:05:40;;;;;;;14.32;2.60;;;11.70;99.90;;;;;;5047698;28;20041;-67
2023/06/07 02:08:23;;;;;;;13.10;2.28;;;11.80;99.90;;;;;;5013661;28;20038;-66
2023/06/07 02:10:51;;;;;;;16.10;2.72;;;11.80;99.90;;;;;;5013849;28;20067;-66
2023/06/07 02:13:20;;;;;;;16.10;2.22;;;11.80;99.90;;;;;;5046478;28;20041;-67
2023/06/07 02:15:46;;;;;;;17.23;2.63;;;11.80;99.90;;;;;;5046305;28;20037;-67
2023/06/07 02:18:12;;;;;;;18.02;2.83;;;11.80;99.90;;;;;;5000017;28;20076;-66
2023/06/07 02:20:39;;;;;;;21.58;3.25;;;11.70;99.90;;;;;;5013642;28;20042;-66
2023/06/07 02:23:04;;;;;;;14.75;2.33;;;11.80;99.90;;;;;;5046363;28;20091;-67
2023/06/07 02:25:34;;;;;;;15.23;2.95;;;11.80;99.90;;;;;;5032188;28;20044;-66
2023/06/07 02:28:00;;;;;;;17.25;3.25;;;11.80;99.90;;;;;;4998210;28;20040;-67
2023/06/07 02:30:25;;;;;;;11.27;2.20;;;11.80;99.90;;;;;;5013647;28;20439;-66
2023/06/07 02:32:54;;;;;;;16.13;3.03;;;11.80;99.90;;;;;;5014815;28;20224;-66
2023/06/07 02:35:21;;;;;;;16.23;2.92;;;11.80;99.90;;;;;;5014926;28;20048;-66
2023/06/07 02:37:47;;;;;;;14.07;3.08;;;11.80;99.90;;;;;;5014130;28;20289;-67
2023/06/07 02:40:13;;;;;;;22.88;3.38;;;11.80;99.90;;;;;;5013396;28;20459;-66
2023/06/07 02:42:47;;;;;;;16.60;2.92;;;11.70;99.90;;;;;;5029187;28;20063;-67
2023/06/07 02:45:13;;;;;;;;;;;11.80;99.90;;;;;;5047922;28;20041;-66
2023/06/07 02:47:39;;;;;;;15.70;3.00;;;11.80;99.90;;;;;;5013209;28;20557;-66
2023/06/07 02:50:06;;;;;;;13.93;2.70;;;11.70;99.90;;;;;;5013633;28;21409;-66
2023/06/07 02:52:33;;;;;;;22.05;3.60;;;11.80;99.90;;;;;;5046064;28;20111;-66
2023/06/07 02:54:59;;;;;;;14.70;2.70;;;11.80;99.90;;;;;;5014795;28;20936;-66
2023/06/07 02:57:25;;;;;;;18.95;3.38;;;11.90;99.90;;;;;;4996935;28;20052;-66
2023/06/07 02:59:53;;;;;;;16.23;3.05;;;11.90;99.90;;;;;;5045577;28;20041;-66
2023/06/07 03:02:19;;;;;;;13.32;2.75;;;12.00;99.90;;;;;;5048562;28;20258;-66
2023/06/07 03:04:46;;;;;;;13.00;2.40;;;12.00;99.90;;;;;;5013080;28;20037;-67
2023/06/07 03:07:12;;;;;;;14.10;2.72;;;12.00;99.90;;;;;;5045638;28;20041;-66
2023/06/07 03:09:39;;;;;;;17.50;2.30;;;11.90;99.90;;;;;;5015085;28;20053;-66
2023/06/07 03:12:06;;;;;;;16.13;2.60;;;11.90;99.90;;;;;;5011767;28;20045;-66
2023/06/07 03:14:32;;;;;;;14.50;2.17;;;11.80;99.90;;;;;;5028663;28;20332;-67
2023/06/07 03:16:58;;;;;;;13.80;2.70;;;11.80;99.90;;;;;;5008485;28;20220;-66
2023/06/07 03:19:24;;;;;;;20.67;3.10;;;11.80;99.90;;;;;;5012732;28;20049;-66
2023/06/07 03:21:53;;;;;;;14.35;2.20;;;11.90;99.90;;;;;;4996387;28;20629;-66
2023/06/07 03:24:19;;;;;;;15.23;2.95;;;11.90;99.90;;;;;;5012980;28;20586;-66
2023/06/07 03:26:45;;;;;;;16.27;2.95;;;11.90;99.90;;;;;;5045435;28;20454;-66
2023/06/07 03:29:11;;;;;;;15.55;3.17;;;11.90;99.90;;;;;;5012627;28;20041;-66
2023/06/07 03:31:37;;;;;;;17.75;2.90;;;12.00;99.90;;;;;;4998207;28;20788;-66
2023/06/07 03:34:02;;;;;;;20.65;2.83;;;12.00;99.90;;;;;;5012540;28;20500;-66
2023/06/07 03:36:31;;;;;;;15.40;2.60;;;12.00;99.90;;;;;;5045134;28;20041;-66
2023/06/07 03:38:58;;;;;;;14.50;2.80;;;12.10;99.90;;;;;;5013148;28;20475;-67
2023/06/07 03:41:25;;;;;;;17.38;2.85;;;12.10;99.90;;;;;;5045706;28;20033;-67
2023/06/07 03:43:51;;;;;;;11.10;2.10;;;12.10;99.90;;;;;;5011557;28;20048;-67
2023/06/07 03:46:17;;;;;;;19.45;3.03;;;12.10;99.90;;;;;;5045972;28;20569;-68
2023/06/07 03:48:43;;;;;;;16.85;2.88;;;12.10;99.90;;;;;;5012572;28;20594;-67
2023/06/07 03:51:09;;;;;;;18.65;2.75;;;12.10;99.90;;;;;;5045074;28;20095;-68
2023/06/07 03:53:35;;;;;;;19.52;2.80;;;12.10;99.90;;;;;;5013745;28;20068;-67
2023/06/07 03:56:01;;;;;;;13.73;2.25;;;12.10;99.90;;;;;;5010924;28;20588;-67
2023/06/07 03:58:27;;;;;;;12.77;2.70;;;12.20;99.90;;;;;;5012276;28;20120;-67
2023/06/07 04:00:53;;;;;;;15.15;2.20;;;12.30;99.90;;;;;;5012387;28;20725;-67
2023/06/07 04:03:24;;;;;;;15.00;2.33;;;12.30;99.90;;;;;;5007316;28;20045;-67
2023/06/07 04:05:50;;;;;;;13.43;2.65;;;12.30;99.90;;;;;;5013761;28;20107;-68
2023/06/07 04:08:16;;;;;;;15.38;2.35;;;12.30;99.90;;;;;;5027207;28;20037;-67
2023/06/07 04:10:42;;;;;;;15.10;2.30;;;12.40;99.90;;;;;;5044643;28;20044;-66
2023/06/07 04:13:08;;;;;;;14.07;2.33;;;12.40;99.90;;;;;;5029728;28;20213;-67
2023/06/07 04:15:34;;;;;;;19.48;2.47;;;12.40;99.90;;;;;;5012238;28;20033;-67
2023/06/07 04:17:59;;;;;;;12.38;2.20;;;12.40;99.90;;;;;;5011816;28;20554;-66
2023/06/07 04:20:25;;;;;;;15.18;2.88;;;12.40;99.90;;;;;;5011746;28;20056;-66
2023/06/07 04:22:52;;;;;;;12.40;2.08;;;12.40;99.90;;;;;;4994556;28;20033;-67
2023/06/07 04:25:21;;;;;;;15.57;2.38;;;12.40;99.90;;;;;;4995806;28;20048;-66
2023/06/07 04:27:51;;;;;;;11.25;2.35;;;12.40;99.90;;;;;;5010811;28;21250;-66
2023/06/07 04:30:18;;;;;;;14.73;2.42;;;12.40;95.80;;;;;;5006555;28;20045;-66
2023/06/07 04:32:44;;;;;;;14.48;2.40;;;12.40;96.20;;;;;;5012691;28;20438;-66
2023/06/07 04:35:14;;;;;;;14.57;2.30;;;12.50;92.50;;;;;;5027385;28;20041;-66
2023/06/07 04:37:45;;;;;;;13.82;2.88;;;12.60;91.40;;;;;;5043554;28;20045;-66
2023/06/07 04:40:14;;;;;;;15.48;2.65;;;12.60;94.10;;;;;;5011617;28;20041;-67
2023/06/07 04:42:40;;;;;;;14.85;2.17;;;12.70;87.90;;;;;;5014142;28;20042;-66
2023/06/07 04:45:09;;;;;;;12.68;2.55;;;12.80;61.20;;;;;;5010352;28;20491;-67
2023/06/07 04:47:35;;;;;;;15.52;1.92;;;12.80;43.30;;;;;;5043206;28;20230;-68
2023/06/07 04:50:01;;;;;;;13.57;2.08;;;12.80;34.10;;;;;;5008685;28;20037;-66
2023/06/07 04:52:28;;;;;;;12.43;2.70;;;12.90;40.40;;;;;;5000313;28;20033;-67
2023/06/07 04:54:56;;;;;;;13.60;2.47;;;12.90;40.30;;;;;;5047962;28;20060;-66
2023/06/07 04:57:23;;;;;;;14.15;2.35;;;13.00;28.10;;;;;;5033835;28;20451;-66
2023/06/07 04:59:51;;;;;;;11.15;2.42;;;13.00;1.00;;;;;;4998809;28;20030;-67
2023/06/07 05:02:16;;;;;;;20.25;2.15;;;13.00;1.00;;;;;;5014334;28;20057;-67
2023/06/07 05:04:42;;;;;;;12.10;2.17;;;12.90;1.00;;;;;;5009219;28;20102;-68
2023/06/07 05:07:08;;;;;;;11.98;2.42;;;13.00;1.00;;;;;;5032072;28;20655;-66
2023/06/07 05:09:34;;;;;;;14.57;2.25;;;13.10;1.00;;;;;;5034110;28;20037;-67
2023/06/07 05:12:02;;;;;;;9.95;2.10;;;13.10;1.00;;;;;;5031014;28;20590;-66
2023/06/07 05:14:27;;;;;;;11.73;2.25;;;13.20;1.00;;;;;;5016595;28;20041;-66
2023/06/07 05:16:53;;;;;;;11.70;2.25;;;13.20;1.00;;;;;;5016007;28;20037;-66
2023/06/07 05:19:19;;;;;;;13.27;1.98;;;13.30;1.00;;;;;;5014768;28;20056;-66
2023/06/07 05:21:45;;;;;;;11.95;2.10;;;13.40;1.00;;;;;;4998550;28;20033;-66
2023/06/07 05:24:10;;;;;;;14.38;2.10;;;13.50;1.00;;;;;;5013679;28;20323;-67
2023/06/07 05:26:37;;;;;;;10.73;2.10;;;13.60;1.00;;;;;;5016125;28;20190;-67
2023/06/07 05:29:03;;;;;;;11.95;2.03;;;13.60;99.90;;;;;;5014279;28;20062;-68
2023/06/07 05:31:29;;;;;;;13.60;2.03;;;13.50;99.90;;;;;;5030086;28;20608;-67
2023/06/07 05:33:55;;;;;;;17.15;2.33;;;13.50;99.90;;;;;;4998053;28;20259;-68
2023/06/07 05:36:20;;;;;;;12.73;2.13;;;13.60;99.90;;;;;;5014498;28;20107;-67
2023/06/07 05:38:46;;;;;;;10.43;2.38;;;13.90;99.90;;;;;;4998369;28;20360;-67
2023/06/07 05:41:12;;;;;;;13.57;2.50;;;14.00;99.90;;;;;;5017548;28;20037;-68
2023/06/07 05:43:38;;;;;;;12.35;1.90;;;14.00;99.90;;;;;;5031368;28;20041;-67
2023/06/07 05:46:04;;;;;;;13.25;1.85;;;14.00;99.90;;;;;;4997467;28;20316;-66
2023/06/07 05:48:30;;;;;;;12.55;2.00;;;14.00;99.90;;;;;;5032856;28;20067;-65
2023/06/07 05:50:56;;;;;;;13.20;2.13;;;13.90;99.90;;;;;;5014822;28;20051;-65
2023/06/07 05:53:23;;;;;;;13.13;2.00;;;14.00;99.90;;;;;;5015734;28;20048;-65
2023/06/07 05:55:49;;;;;;;12.57;2.08;;;13.90;99.90;;;;;;4998085;28;20493;-66
2023/06/07 05:58:14;;;;;;;10.55;1.92;;;14.00;99.90;;;;;;5013746;28;20050;-65
2023/06/07 06:00:40;;;;;;;9.18;1.70;;;14.00;99.90;;;;;;5029666;28;20087;-65
2023/06/07 06:03:06;;;;;;;13.38;2.33;;;14.10;99.90;;;;;;5046896;28;20080;-65
2023/06/07 06:05:32;;;;;;;11.25;1.70;;;14.20;99.90;;;;;;5030969;28;20063;-65
2023/06/07 06:07:58;;;;;;;10.30;2.10;;;14.40;99.90;;;;;;4997207;28;20041;-65
2023/06/07 06:10:25;;;;;;;13.98;2.45;;;14.40;99.90;;;;;;5024494;28;20206;-66
2023/06/07 06:12:51;;;;;;;10.98;1.67;;;14.50;99.90;;;;;;5013882;28;20071;-65
2023/06/07 06:15:17;;;;;;;11.80;2.00;;;14.50;99.90;;;;;;5045373;28;20542;-65
2023/06/07 06:17:42;;;;;;;15.10;2.13;;;14.40;99.90;;;;;;5030356;28;20173;-65
2023/06/07 06:20:09;;;;;;;9.43;2.03;;;14.50;99.90;;;;;;5012571;28;20468;-65
2023/06/07 06:22:34;;;;;;;13.35;1.65;;;14.60;99.90;;;;;;4989340;28;20137;-65
2023/06/07 06:25:00;;;;;;;12.55;1.98;;;14.70;99.90;;;;;;5033838;28;20038;-65
2023/06/07 06:27:26;;;;;;;8.38;1.40;;;14.90;99.90;;;;;;5012872;28;20041;-65
2023/06/07 06:29:52;;;;;;;12.77;2.53;;;15.10;99.90;;;;;;4991189;28;21495;-65
2023/06/07 06:32:17;;;;;;;9.70;1.70;;;15.40;99.90;;;;;;4991179;28;20075;-65
2023/06/07 06:34:47;;;;;;;8.95;1.63;;;15.70;99.90;;;;;;5013104;28;20048;-65
2023/06/07 06:37:13;;;;;;;8.57;1.67;;;15.80;99.90;;;;;;5046991;28;20037;-66
2023/06/07 06:39:39;;;;;;;11.98;1.80;;;15.80;99.90;;;;;;4998944;28;20048;-66
2023/06/07 06:42:05;;;;;;;7.85;1.17;;;15.70;99.90;;;;;;5012656;28;20084;-67
2023/06/07 06:44:31;;;;;;;8.63;1.58;;;15.90;99.90;;;;;;5008748;28;20033;-66
2023/06/07 06:46:56;;;;;;;9.68;1.42;;;16.10;99.90;;;;;;5013618;28;20044;-66
2023/06/07 06:49:22;;;;;;;8.50;2.33;;;16.10;99.90;;;;;;5007257;28;20541;-67
2023/06/07 06:51:48;;;;;;;8.90;1.50;;;16.20;99.90;;;;;;5013013;28;21172;-67
2023/06/07 06:54:14;;;;;;;8.85;1.65;;;16.30;99.90;;;;;;5029727;28;20208;-68
2023/06/07 06:56:39;;;;;;;10.32;1.75;;;16.60;99.90;;;;;;5029890;28;20333;-67
2023/06/07 06:59:05;;;;;;;6.88;1.50;;;16.90;99.90;;;;;;4997437;28;20094;-67
2023/06/07 07:01:48;;;;;;;8.60;1.58;;;17.20;99.90;;;;;;5029705;28;20048;-66
2023/06/07 07:04:14;;;;;;;9.55;1.48;;;17.40;70.80;;;;;;5045021;28;20820;-66
2023/06/07 07:06:41;;;;;;;10.07;2.00;;;17.40;99.90;;;;;;5048685;28;20654;-67
2023/06/07 07:09:07;;;;;;;8.70;1.30;;;17.50;99.90;;;;;;5028414;28;20045;-67
2023/06/07 07:11:33;;;;;;;8.15;1.50;;;17.10;99.90;;;;;;4990895;28;20076;-66
2023/06/07 07:13:59;;;;;;;9.73;1.85;;;17.20;99.90;;;;;;5045824;28;20045;-67
2023/06/07 07:16:25;;;;;;;7.63;1.48;;;17.20;99.90;;;;;;5012794;28;20546;-66
2023/06/07 07:18:50;;;;;;;12.68;1.55;;;17.70;99.90;;;;;;5011463;28;20044;-66
2023/06/07 07:21:16;;;;;;;9.10;1.50;;;18.10;60.50;;;;;;5011831;28;20079;-66
2023/06/07 07:23:42;;;;;;;10.20;1.55;;;17.90;1.00;;;;;;5028643;28;20135;-66
2023/06/07 07:26:07;;;;;;;9.27;1.30;;;17.70;14.60;;;;;;5044453;28;20052;-66
2023/06/07 07:28:33;;;;;;;8.82;1.70;;;17.60;27.30;;;;;;5045435;28;20241;-66
2023/06/07 07:30:59;;;;;;;7.97;1.30;;;17.50;1.00;;;;;;5010962;28;20347;-67
2023/06/07 07:33:24;;;;;;;10.65;1.50;;;17.20;8.10;;;;;;5044453;28;20080;-66
2023/06/07 07:35:51;;;;;;;8.90;1.67;;;16.90;26.30;;;;;;5011150;28;20041;-67
2023/06/07 07:38:17;;;;;;;9.23;1.52;;;16.70;42.20;;;;;;4997637;28;20045;-67
2023/06/07 07:40:44;;;;;;;7.80;1.63;;;16.80;72.80;;;;;;5044239;28;20138;-67
2023/06/07 07:43:10;;;;;;;8.18;1.48;;;16.90;87.60;;;;;;5045821;28;20083;-66
2023/06/07 07:45:37;;;;;;;11.07;1.40;;;17.20;64.80;;;;;;5013244;28;20224;-66
2023/06/07 07:48:04;;;;;;;6.90;1.38;;;17.30;1.00;;;;;;5013500;28;20236;-65
2023/06/07 07:50:29;;;;;;;11.07;2.10;;;17.30;1.00;;;;;;4997203;28;20379;-67
2023/06/07 07:52:56;;;;;;;10.82;3.50;;;17.40;10.90;;;;;;5011076;28;20427;-66
2023/06/07 07:55:23;;;;;;;8.07;2.05;;;17.40;26.40;;;;;;4996108;28;20056;-66
2023/06/07 07:57:50;;;;;;;9.40;2.22;;;17.20;28.70;;;;;;5030440;28;20041;-66
2023/06/07 08:00:17;;;;;;;9.23;1.80;;;17.10;30.20;;;;;;5012397;28;20030;-67
2023/06/07 08:02:43;;;;;;;11.55;2.55;;;17.20;24.50;;;;;;5011139;28;20057;-67
2023/06/07 08:05:09;;;;;;;10.85;1.67;;;17.10;8.90;;;;;;5044547;28;20072;-66
2023/06/07 08:07:35;;;;;;;9.07;1.70;;;17.20;4.20;;;;;;5012588;28;20231;-66
2023/06/07 08:10:01;;;;;;;13.45;1.83;;;17.50;1.00;;;;;;4998261;28;20037;-67
2023/06/07 08:12:27;;;;;;;10.15;1.63;;;17.70;1.00;;;;;;4995839;28;20396;-67
2023/06/07 08:14:52;;;;;;;15.68;7.80;;;17.90;1.00;;;;;;4995177;28;20453;-67
2023/06/07 08:17:20;;;;;;;8.88;1.60;;;18.20;1.00;;;;;;5010335;28;20317;-67
2023/06/07 08:19:46;;;;;;;14.65;3.53;;;17.90;1.00;;;;;;5029015;28;20042;-67
2023/06/07 08:22:12;;;;;;;15.77;2.55;;;17.90;1.00;;;;;;5043724;28;20041;-67
2023/06/07 08:24:38;;;;;;;14.60;2.38;;;17.80;1.00;;;;;;5044925;28;20396;-66
2023/06/07 08:27:04;;;;;;;9.55;1.92;;;18.00;1.00;;;;;;5045062;28;20437;-67
2023/06/07 08:29:30;;;;;;;11.70;2.25;;;18.20;1.00;;;;;;5010889;28;20368;-67
2023/06/07 08:31:56;;;;;;;12.02;1.90;;;18.10;1.00;;;;;;5044990;28;20037;-66
2023/06/07 08:34:28;;;;;;;11.60;2.20;;;18.00;1.00;;;;;;5045249;28;20037;-67
2023/06/07 08:36:54;;;;;;;13.43;2.00;;;17.70;1.00;;;;;;4979727;28;20045;-67
2023/06/07 08:39:21;;;;;;;11.52;2.35;;;18.20;1.00;;;;;;4995762;28;20037;-67
2023/06/07 08:41:47;;;;;;;11.18;2.30;;;18.30;1.00;;;;;;5012450;28;20045;-67
2023/06/07 08:44:14;;;;;;;6.72;1.70;;;18.30;1.00;;;;;;5010907;28;20135;-67
2023/06/07 08:46:40;;;;;;;11.85;2.00;;;18.50;1.00;;;;;;5023759;28;20538;-67
2023/06/07 08:49:07;;;;;;;10.63;1.90;;;18.40;99.90;;;;;;5012536;28;20527;-67
2023/06/07 08:51:36;;;;;;;9.65;1.52;;;18.60;99.90;;;;;;5011958;28;20049;-67
2023/06/07 08:54:03;;;;;;;10.27;2.13;;;18.70;99.90;;;;;;5021010;28;20082;-67
2023/06/07 08:56:33;;;;;;;15.07;2.38;;;19.20;1.00;;;;;;5026919;28;20057;-68
2023/06/07 08:58:59;;;;;;;7.68;1.45;;;19.40;99.90;;;;;;5013559;28;20128;-68
2023/06/07 09:01:28;;;;;;;9.57;1.70;;;19.90;99.90;;;;;;5028609;28;20091;-68
2023/06/07 09:03:54;;;;;;;13.90;2.47;;;19.80;99.90;;;;;;5044125;28;20100;-68
2023/06/07 09:06:21;;;;;;;10.13;2.03;;;19.90;99.90;;;;;;5043962;28;20299;-68
2023/06/07 09:08:48;;;;;;;10.85;2.10;;;19.50;99.90;;;;;;5026706;28;20041;-67
2023/06/07 09:11:15;;;;;;;10.52;2.42;;;19.50;99.90;;;;;;5027515;28;20079;-68
2023/06/07 09:13:41;;;;;;;7.57;1.65;;;19.60;99.90;;;;;;4996687;28;20078;-68
2023/06/07 09:16:11;;;;;;;9.68;1.75;;;19.90;99.90;;;;;;5044472;28;20364;-67
2023/06/07 09:18:45;;;;;;;10.10;1.60;;;20.10;99.90;;;;;;5010898;28;20614;-67
2023/06/07 09:21:24;;;;;;;8.77;1.48;;;19.90;99.90;;;;;;5010735;28;20419;-67
2023/06/07 09:23:51;;;;;;;8.43;1.98;;;19.80;99.90;;;;;;5022680;28;20484;-67
2023/06/07 09:26:17;;;;;;;8.27;2.35;;;19.40;99.90;;;;;;5043625;28;20506;-66
2023/06/07 09:28:47;;;;;;;9.02;1.77;;;19.70;99.90;;;;;;5009967;28;20050;-67
2023/06/07 09:31:28;;;;;;;7.22;1.33;;;19.70;99.90;;;;;;5012380;28;20049;-66
2023/06/07 09:33:54;;;;;;;10.65;1.73;;;20.00;99.90;;;;;;4997416;28;20788;-66
2023/06/07 09:36:20;;;;;;;6.70;1.60;;;19.90;99.90;;;;;;5011600;28;20041;-66
2023/06/07 09:38:46;;;;;;;7.15;1.67;;;20.00;99.90;;;;;;5014211;28;20088;-66
2023/06/07 09:41:13;;;;;;;10.57;2.22;;;20.00;99.90;;;;;;5025094;28;20095;-67
2023/06/07 09:43:54;;;;;;;7.63;1.55;;;20.30;99.90;;;;;;5032617;28;20037;-66
2023/06/07 09:46:21;;;;;;;10.07;2.20;;;20.30;99.90;;;;;;5047997;28;20530;-66
2023/06/07 09:48:51;;;;;;;12.38;2.13;;;20.40;99.90;;;;;;5048902;28;20123;-66
2023/06/07 09:51:20;;;;;;;7.13;1.65;;;20.20;99.90;;;;;;5014397;28;20056;-66
2023/06/07 09:54:05;;;;;;;10.93;2.05;;;20.40;99.90;;;;;;4999112;28;20255;-67
2023/06/07 09:56:31;;;;;;;8.63;1.77;;;20.50;99.90;;;;;;4999967;28;20040;-66
2023/06/07 09:59:06;;;;;;;8.45;1.85;;;20.20;99.90;;;;;;5014590;28;20037;-66
2023/06/07 10:01:32;;;;;;;8.45;1.60;;;20.30;99.90;;;;;;5047353;28;20432;-66
2023/06/07 10:04:00;;;;;;;10.32;2.15;;;20.30;99.90;;;;;;5048837;28;20048;-65
2023/06/07 10:06:26;;;;;;;7.32;1.67;;;20.50;99.90;;;;;;5014427;28;20048;-66
2023/06/07 10:08:52;;;;;;;8.13;2.00;;;20.80;99.90;;;;;;5014061;28;20044;-66
2023/06/07 10:11:18;;;;;;;9.82;1.90;;;20.50;99.90;;;;;;5031243;28;20609;-67
2023/06/07 10:13:46;;;;;;;9.60;2.00;;;20.50;99.90;;;;;;4998136;28;20044;-66
2023/06/07 10:16:15;;;;;;;8.27;1.48;;;20.60;99.90;;;;;;5008239;28;20049;-66
2023/06/07 10:18:42;;;;;;;8.35;1.77;;;20.50;99.90;;;;;;5014335;28;20152;-67
2023/06/07 10:21:15;;;;;;;11.07;2.17;;;20.60;99.90;;;;;;5048041;28;20037;-66
2023/06/07 10:23:50;;;;;;;9.65;1.98;;;20.60;99.90;;;;;;5013841;28;20045;-67
2023/06/07 10:26:37;;;;;;;11.15;2.10;;;20.60;99.90;;;;;;5012894;28;20205;-67
2023/06/07 10:29:22;;;;;;;7.57;1.92;;;20.50;99.90;;;;;;5025057;28;20077;-67
2023/06/07 10:32:00;;;;;;;10.13;1.85;;;20.40;99.90;;;;;;5008149;28;20049;-67
2023/06/07 10:34:30;;;;;;;7.40;1.52;;;20.30;99.90;;;;;;5031067;28;20808;-68
2023/06/07 10:36:58;;;;;;;9.60;1.80;;;20.60;99.90;;;;;;5047226;28;20049;-68
2023/06/07 10:39:24;;;;;;;8.15;1.80;;;20.60;99.90;;;;;;5047866;28;20128;-68
2023/06/07 10:41:51;;;;;;;9.10;1.80;;;20.80;99.90;;;;;;5013001;28;21308;-67
2023/06/07 10:44:17;;;;;;;11.18;1.85;;;20.60;99.90;;;;;;5014824;28;20151;-68
2023/06/07 10:46:43;;;;;;;7.70;1.85;;;20.80;99.90;;;;;;5030088;28;20418;-67
2023/06/07 10:49:36;;;;;;;9.05;2.05;;;20.80;99.90;;;;;;5029857;28;20538;-66
2023/06/07 10:52:03;;;;;;;9.90;2.22;;;20.80;99.90;;;;;;5014085;28;20049;-67
2023/06/07 10:54:30;;;;;;;10.07;2.13;;;20.70;99.90;;;;;;5013281;28;20045;-67
2023/06/07 10:56:56;;;;;;;11.32;2.25;;;20.70;99.90;;;;;;5012907;28;20108;-67
2023/06/07 10:59:22;;;;;;;10.70;2.72;;;21.00;99.90;;;;;;5014354;28;21596;-67
2023/06/07 11:01:50;;;;;;;11.00;2.20;;;21.30;99.90;;;;;;5012761;28;20578;-68
2023/06/07 11:04:35;;;;;;;10.90;2.20;;;21.20;99.90;;;;;;4997850;28;20041;-67
2023/06/07 11:07:22;;;;;;;9.60;1.92;;;21.10;99.90;;;;;;5046098;28;20037;-67
2023/06/07 11:09:49;;;;;;;10.57;1.80;;;21.20;99.90;;;;;;5045306;28;20081;-67
2023/06/07 11:12:44;;;;;;;8.82;2.20;;;21.10;99.90;;;;;;5028902;28;20539;-67
2023/06/07 11:15:35;;;;;;;11.18;1.75;;;21.10;99.90;;;;;;5046556;28;20053;-67
2023/06/07 11:18:07;;;;;;;11.65;2.25;;;21.20;99.90;;;;;;5037769;28;20284;-67
2023/06/07 11:20:39;;;;;;;15.95;3.20;;;21.10;99.90;;;;;;5046065;28;20037;-67
2023/06/07 11:23:24;;;;;;;7.30;1.73;;;21.20;99.90;;;;;;5029539;28;20087;-67
2023/06/07 11:25:54;;;;;;;9.57;1.95;;;21.30;99.90;;;;;;5045655;28;20619;-67
2023/06/07 11:28:24;;;;;;;8.38;2.20;;;21.50;99.90;;;;;;5045355;28;20037;-67
2023/06/07 11:30:51;;;;;;;8.80;1.92;;;21.50;99.90;;;;;;5013565;28;20348;-67
2023/06/07 11:33:24;;;;;;;9.30;2.17;;;21.30;99.90;;;;;;4997056;28;20077;-67
2023/06/07 11:35:50;;;;;;;;;;;21.70;99.90;;;;;;5012396;28;20233;-67
2023/06/07 11:38:16;;;;;;;10.93;2.17;;;21.60;99.90;;;;;;5021904;28;20438;-67
2023/06/07 11:40:43;;;;;;;12.57;2.53;;;21.00;99.90;;;;;;5045888;28;20641;-67
2023/06/07 11:43:14;;;;;;;7.32;1.80;;;21.20;99.90;;;;;;4997606;28;20266;-67
2023/06/07 11:45:43;;;;;;;10.55;2.25;;;21.70;99.90;;;;;;5046060;28;20451;-67
2023/06/07 11:48:10;;;;;;;8.60;2.00;;;21.70;99.90;;;;;;5044638;28;20049;-67
2023/06/07 11:50:40;;;;;;;10.77;1.92;;;21.90;99.90;;;;;;5013699;28;20156;-67
2023/06/07 11:53:10;;;;;;;8.68;1.98;;;22.30;99.90;;;;;;5013245;28;20040;-67
2023/06/07 11:55:37;;;;;;;8.85;2.10;;;22.20;99.90;;;;;;5046657;28;20513;-66
2023/06/07 11:58:04;;;;;;;10.43;2.17;;;22.10;99.90;;;;;;5044483;28;20706;-67
2023/06/07 12:00:31;;;;;;;16.80;2.55;;;22.00;99.90;;;;;;5038499;28;20144;-68
2023/06/07 12:02:59;;;;;;;12.85;2.47;;;21.70;99.90;;;;;;4995447;28;20052;-67
2023/06/07 12:05:30;;;;;;;11.55;2.40;;;21.80;99.90;;;;;;5012689;28;20099;-68
2023/06/07 12:08:27;;;;;;;9.40;1.92;;;22.00;99.90;;;;;;5007174;28;20574;-67
2023/06/07 12:10:55;;;;;;;10.38;2.00;;;21.80;99.90;;;;;;5010523;28;20168;-69
2023/06/07 12:13:23;;;;;;;8.10;2.03;;;21.80;99.90;;;;;;5012143;28;20195;-68
2023/06/07 12:15:49;;;;;;;8.05;1.55;;;21.60;99.90;;;;;;5011426;28;20311;-67
2023/06/07 12:18:17;;;;;;;9.60;2.22;;;21.60;99.90;;;;;;5043689;28;20200;-68
2023/06/07 12:20:45;;;;;;;7.20;1.70;;;21.80;99.90;;;;;;5006177;28;20316;-68
2023/06/07 12:23:12;;;;;;;9.57;1.83;;;21.80;99.90;;;;;;5012064;28;20341;-67
2023/06/07 12:25:41;;;;;;;10.13;1.90;;;21.70;99.90;;;;;;5045398;28;20041;-67
2023/06/07 12:28:11;;;;;;;7.47;1.80;;;21.80;99.90;;;;;;5043789;28;20111;-68
2023/06/07 12:30:38;;;;;;;10.95;2.65;;;21.90;99.90;;;;;;4994958;28;20103;-68
2023/06/07 12:33:04;;;;;;;10.23;2.22;;;21.50;99.90;;;;;;5045134;28;20034;-68
2023/06/07 12:35:38;;;;;;;10.85;2.47;;;21.60;99.90;;;;;;5045809;28;20045;-68
2023/06/07 12:38:05;;;;;;;8.15;1.90;;;21.40;99.90;;;;;;5030948;28;20041;-68
2023/06/07 12:40:32;;;;;;;12.35;2.70;;;21.40;99.90;;;;;;5032523;28;20146;-66
2023/06/07 12:42:58;;;;;;;10.95;2.53;;;21.40;99.90;;;;;;5034197;28;20041;-67
2023/06/07 12:45:24;;;;;;;9.80;2.30;;;21.30;99.90;;;;;;4997917;28;20505;-67